Time;durP1;ratioP1;P1;durP2;ratioP2;P2;SDS_P1;SDS_P2;PMS_P1;PMS_P2;Temp;Humidity;BMP_temperature;BMP_pressure;BME280_temperature;BME280_humidity;BME280_pressure;Samples;Min_cycle;Max_cycle;Signal;HPM_P1;HPM_P2
2022/06/25 07:25:07;;;;;;;7.35;2.30;;;23.50;96.70;;;;;;4962816;28;20094;-81
2022/06/25 07:27:35;;;;;;;7.60;2.40;;;23.30;96.70;;;;;;4966875;28;20730;-82
2022/06/25 07:30:05;;;;;;;9.70;3.25;;;23.30;96.70;;;;;;4965249;28;20145;-81
2022/06/25 07:32:33;;;;;;;7.68;2.47;;;23.30;96.70;;;;;;4972757;28;20110;-80
2022/06/25 07:35:02;;;;;;;7.10;2.30;;;23.30;96.70;;;;;;4949436;28;20054;-80
2022/06/25 07:37:30;;;;;;;8.02;2.85;;;23.30;96.70;;;;;;4970963;28;20124;-81
2022/06/25 07:39:59;;;;;;;8.98;3.08;;;23.30;96.70;;;;;;4957239;28;20051;-82
2022/06/25 07:42:44;;;;;;;12.02;3.53;;;23.40;96.70;;;;;;4967546;28;20043;-81
2022/06/25 07:45:13;;;;;;;7.95;2.95;;;23.50;96.70;;;;;;4966014;28;20468;-82
2022/06/25 07:47:41;;;;;;;9.85;3.08;;;23.50;96.70;;;;;;4972461;28;20146;-81
2022/06/25 07:52:58;;;;;;;7.25;2.85;;;23.60;96.70;;;;;;4967015;28;20121;-82
2022/06/25 07:55:26;;;;;;;9.82;3.25;;;23.60;96.70;;;;;;4950035;28;20094;-81
2022/06/25 07:57:56;;;;;;;10.68;3.08;;;23.70;96.70;;;;;;4970461;28;20047;-79
2022/06/25 08:00:24;;;;;;;9.75;2.90;;;23.60;96.70;;;;;;4951517;28;20054;-83
2022/06/25 08:02:52;;;;;;;8.68;2.92;;;23.60;96.70;;;;;;4968720;28;20074;-83
2022/06/25 08:05:22;;;;;;;8.00;3.05;;;23.70;96.70;;;;;;4966130;28;20057;-82
2022/06/25 08:07:50;;;;;;;6.40;3.00;;;24.00;96.70;;;;;;4965778;28;20047;-83
2022/06/25 08:10:18;;;;;;;6.82;2.40;;;24.30;96.70;;;;;;4970364;28;20146;-83
2022/06/25 08:12:46;;;;;;;13.10;3.53;;;24.60;96.70;;;;;;4952824;28;20683;-82
2022/06/25 08:15:19;;;;;;;8.43;2.45;;;24.70;96.70;;;;;;4950267;28;20046;-80
2022/06/25 08:17:47;;;;;;;9.60;3.08;;;24.80;96.70;;;;;;4966632;28;20500;-81
2022/06/25 08:20:15;;;;;;;7.55;2.55;;;24.80;96.70;;;;;;4950602;28;20476;-82
2022/06/25 08:22:43;;;;;;;6.32;2.30;;;24.80;96.70;;;;;;4970028;28;20093;-81
2022/06/25 08:25:12;;;;;;;5.18;2.70;;;24.90;96.70;;;;;;4988629;28;20451;-82
2022/06/25 08:27:50;;;;;;;7.75;2.35;;;24.90;96.70;;;;;;4993378;28;20044;-83
2022/06/25 08:30:21;;;;;;;6.43;2.83;;;25.10;96.70;;;;;;4982127;28;20066;-82
2022/06/25 08:32:50;;;;;;;6.63;2.10;;;25.20;96.70;;;;;;4964176;28;20054;-80
2022/06/25 08:35:18;;;;;;;7.93;2.95;;;25.30;96.70;;;;;;4989860;28;20056;-82
2022/06/25 08:37:52;;;;;;;7.13;2.60;;;25.40;96.70;;;;;;4990258;28;20120;-83
2022/06/25 08:40:21;;;;;;;11.20;3.45;;;25.50;96.70;;;;;;4977599;28;20047;-84
2022/06/25 08:42:50;;;;;;;8.60;3.08;;;25.60;96.70;;;;;;4990542;28;20097;-83
2022/06/25 08:45:20;;;;;;;11.98;3.75;;;25.80;96.70;;;;;;4989225;28;20106;-83
2022/06/25 08:47:49;;;;;;;8.82;3.15;;;25.90;96.70;;;;;;5002484;28;20569;-84
2022/06/25 08:50:21;;;;;;;12.35;3.90;;;26.00;96.70;;;;;;4995432;28;20053;-82
2022/06/25 08:52:51;;;;;;;12.52;4.00;;;26.20;96.70;;;;;;4994488;28;20049;-81
2022/06/25 08:55:29;;;;;;;10.88;3.45;;;26.20;96.70;;;;;;4984389;28;20130;-81
2022/06/25 08:57:58;;;;;;;14.07;4.00;;;26.30;96.70;;;;;;4990287;28;20100;-80
2022/06/25 09:00:27;;;;;;;10.18;3.70;;;26.40;96.70;;;;;;4991507;28;20069;-79
2022/06/25 09:02:56;;;;;;;12.43;3.63;;;26.40;96.70;;;;;;4989064;28;20076;-80
2022/06/25 09:05:29;;;;;;;12.52;4.05;;;26.50;96.70;;;;;;4987581;28;20058;-80
2022/06/25 09:07:59;;;;;;;9.07;3.53;;;26.50;96.70;;;;;;4992537;28;21185;-82
2022/06/25 09:10:33;;;;;;;11.60;3.42;;;26.60;96.70;;;;;;4992217;28;20043;-83
2022/06/25 09:13:03;;;;;;;9.98;3.92;;;26.70;96.70;;;;;;4990123;28;20066;-84
2022/06/25 09:15:34;;;;;;;13.00;3.40;;;26.70;96.70;;;;;;5001291;28;20042;-84
2022/06/25 09:18:07;;;;;;;10.10;3.03;;;26.70;96.70;;;;;;4997141;28;20292;-83
2022/06/25 09:20:36;;;;;;;11.68;2.80;;;26.90;96.70;;;;;;4998924;28;20055;-83
2022/06/25 09:23:07;;;;;;;16.73;4.28;;;27.00;96.70;;;;;;4982831;28;20147;-83
2022/06/25 09:25:37;;;;;;;13.68;3.28;;;27.00;96.70;;;;;;4980142;28;20057;-83
2022/06/25 09:28:05;;;;;;;9.73;2.95;;;27.00;96.70;;;;;;4992335;28;20060;-83
2022/06/25 09:30:34;;;;;;;11.63;2.63;;;27.10;96.70;;;;;;4975595;28;20054;-82
2022/06/25 09:33:03;;;;;;;11.85;3.05;;;27.20;96.70;;;;;;4989294;28;20038;-82
2022/06/25 09:35:35;;;;;;;9.15;2.88;;;27.10;96.70;;;;;;4983339;28;20117;-83
2022/06/25 09:38:08;;;;;;;8.50;2.97;;;27.30;96.70;;;;;;4978686;28;20046;-82
2022/06/25 09:40:37;;;;;;;12.45;3.13;;;27.40;96.70;;;;;;4988819;28;20042;-81
2022/06/25 09:43:13;;;;;;;12.98;3.47;;;27.50;96.70;;;;;;4995161;28;20467;-82
2022/06/25 09:45:44;;;;;;;9.73;3.08;;;27.60;96.70;;;;;;4988876;28;20046;-83
2022/06/25 09:48:21;;;;;;;11.38;2.63;;;27.60;96.70;;;;;;4979980;28;20046;-83
2022/06/25 09:51:09;;;;;;;7.72;2.40;;;27.70;96.70;;;;;;4996698;28;20497;-84
2022/06/25 09:53:47;;;;;;;8.25;2.75;;;27.60;96.70;;;;;;4982987;28;20046;-81
2022/06/25 09:56:17;;;;;;;9.13;2.67;;;27.60;96.70;;;;;;4997027;28;20050;-83
2022/06/25 09:58:47;;;;;;;9.32;2.30;;;27.80;96.70;;;;;;4989834;28;20093;-84
2022/06/25 10:01:45;;;;;;;10.10;2.47;;;27.90;96.70;;;;;;4990087;28;20496;-85
2022/06/25 10:04:13;;;;;;;9.20;2.75;;;28.10;96.70;;;;;;4963895;28;20054;-81
2022/06/25 10:06:43;;;;;;;9.48;2.83;;;28.30;96.70;;;;;;4991446;28;20513;-81
2022/06/25 10:09:12;;;;;;;8.93;2.60;;;28.30;96.70;;;;;;4987455;28;20074;-82
2022/06/25 10:11:41;;;;;;;11.10;2.50;;;28.10;96.70;;;;;;4991616;28;20499;-82
2022/06/25 10:14:11;;;;;;;8.68;2.47;;;28.20;96.70;;;;;;4972183;28;20141;-81
2022/06/25 10:16:39;;;;;;;5.65;1.98;;;28.30;96.70;;;;;;4995037;28;20125;-80
2022/06/25 10:19:12;;;;;;;7.38;2.17;;;28.50;96.70;;;;;;4997166;28;20041;-81
2022/06/25 10:21:40;;;;;;;5.50;2.70;;;28.60;96.70;;;;;;4990497;28;20052;-81
2022/06/25 10:24:08;;;;;;;6.20;2.33;;;28.50;96.70;;;;;;4988194;28;20065;-81
2022/06/25 10:26:37;;;;;;;8.95;2.88;;;28.50;96.70;;;;;;4986149;28;20146;-83
2022/06/25 10:29:23;;;;;;;8.23;2.45;;;28.40;96.70;;;;;;4995397;28;20051;-82
2022/06/25 10:32:12;;;;;;;10.50;2.80;;;28.70;96.70;;;;;;4978662;28;20057;-80
2022/06/25 10:34:55;;;;;;;9.63;2.70;;;28.50;96.70;;;;;;4989583;28;20092;-83
2022/06/25 10:37:23;;;;;;;9.98;2.83;;;28.50;96.70;;;;;;4964070;28;20046;-80
2022/06/25 10:39:53;;;;;;;8.75;2.42;;;28.60;96.70;;;;;;4993729;28;20057;-79
2022/06/25 10:45:45;;;;;;;7.75;2.45;;;28.90;96.70;;;;;;4986955;28;20065;-82
2022/06/25 10:48:13;;;;;;;6.60;2.65;;;29.00;96.70;;;;;;4971644;28;20782;-83
2022/06/25 10:50:51;;;;;;;4.40;1.55;;;29.10;96.70;;;;;;4990088;28;20081;-79
2022/06/25 10:53:22;;;;;;;6.13;2.00;;;29.40;96.70;;;;;;4992724;28;20050;-81
2022/06/25 10:56:15;;;;;;;5.70;1.90;;;29.40;96.70;;;;;;4986238;28;20408;-82
2022/06/25 10:58:46;;;;;;;9.52;2.47;;;29.40;96.70;;;;;;4986591;28;20575;-84
2022/06/25 11:01:30;;;;;;;7.55;2.60;;;29.40;96.70;;;;;;4973927;28;20054;-83
2022/06/25 11:04:12;;;;;;;6.55;2.30;;;29.60;96.70;;;;;;4988163;28;20047;-84
2022/06/25 11:06:41;;;;;;;6.60;1.70;;;29.70;96.70;;;;;;4994764;28;20052;-84
2022/06/25 11:09:15;;;;;;;7.95;2.60;;;29.80;96.70;;;;;;5003375;28;20092;-84
2022/06/25 11:11:46;;;;;;;6.40;2.05;;;29.90;96.70;;;;;;4993684;28;20066;-83
2022/06/25 11:14:20;;;;;;;5.85;2.35;;;29.90;96.70;;;;;;4988567;28;20137;-83
2022/06/25 11:16:50;;;;;;;6.38;2.03;;;29.80;96.70;;;;;;4988196;28;20042;-83
2022/06/25 11:19:25;;;;;;;6.28;1.92;;;29.90;96.70;;;;;;4994550;28;20057;-84
2022/06/25 11:21:54;;;;;;;4.88;2.00;;;29.90;96.70;;;;;;4999117;28;20048;-83
2022/06/25 11:24:28;;;;;;;7.05;2.28;;;30.10;96.70;;;;;;4992186;28;20062;-83
2022/06/25 11:29:46;;;;;;;10.10;2.30;;;30.20;96.70;;;;;;4982963;28;20054;-84
2022/06/25 11:32:18;;;;;;;7.47;2.33;;;30.30;96.70;;;;;;4984305;28;20558;-85
2022/06/25 11:34:51;;;;;;;9.18;2.03;;;30.30;96.70;;;;;;4992420;28;20561;-83
2022/06/25 11:37:21;;;;;;;6.82;2.10;;;30.30;96.70;;;;;;4987498;28;20056;-84
2022/06/25 11:39:49;;;;;;;8.43;2.30;;;30.40;96.70;;;;;;4967550;28;20050;-83
2022/06/25 11:42:18;;;;;;;7.25;2.55;;;30.40;96.70;;;;;;4993989;28;20072;-83
2022/06/25 11:44:48;;;;;;;11.00;2.22;;;30.30;96.70;;;;;;4987394;28;20100;-82
2022/06/25 11:47:20;;;;;;;5.95;2.30;;;30.30;96.70;;;;;;4993764;28;20062;-83
2022/06/25 11:49:49;;;;;;;5.10;1.75;;;30.20;96.70;;;;;;4993308;28;20038;-83
2022/06/25 11:52:23;;;;;;;5.57;1.85;;;30.40;96.70;;;;;;4991565;28;20066;-84
2022/06/25 11:54:52;;;;;;;4.63;1.63;;;30.30;96.70;;;;;;4974105;28;20504;-84
2022/06/25 11:57:21;;;;;;;4.72;1.90;;;30.50;96.70;;;;;;4992468;28;20053;-83
2022/06/25 11:59:52;;;;;;;5.45;1.65;;;30.60;96.70;;;;;;4995875;28;20050;-84
2022/06/25 12:02:21;;;;;;;9.18;2.00;;;30.70;96.70;;;;;;4993220;28;20053;-83
2022/06/25 12:04:54;;;;;;;8.32;2.33;;;30.80;96.70;;;;;;4969813;28;20138;-84
2022/06/25 12:07:26;;;;;;;9.25;2.13;;;30.80;96.70;;;;;;4986091;28;20050;-83
2022/06/25 12:09:57;;;;;;;5.80;1.77;;;30.80;96.70;;;;;;4987595;28;20061;-84
2022/06/25 12:12:27;;;;;;;9.43;1.95;;;30.80;96.70;;;;;;4989598;28;20149;-84
2022/06/25 12:15:01;;;;;;;6.90;2.03;;;30.80;96.70;;;;;;4980219;28;20046;-85
2022/06/25 12:17:34;;;;;;;8.38;1.90;;;30.80;96.70;;;;;;4986687;28;20423;-84
2022/06/25 12:20:07;;;;;;;4.78;1.80;;;30.80;96.70;;;;;;4988016;28;20038;-84
2022/06/25 12:22:40;;;;;;;9.10;2.20;;;30.90;96.70;;;;;;4975897;28;20133;-85
2022/06/25 12:25:10;;;;;;;10.18;2.25;;;31.10;96.70;;;;;;4979267;28;20125;-84
2022/06/25 12:27:46;;;;;;;7.68;2.65;;;31.20;96.70;;;;;;4967310;28;20050;-84
2022/06/25 12:30:21;;;;;;;6.80;1.92;;;31.30;96.70;;;;;;4990952;28;20052;-83
2022/06/25 12:32:52;;;;;;;5.40;1.40;;;31.40;96.70;;;;;;4974237;28;20553;-84
2022/06/25 12:35:22;;;;;;;6.78;2.20;;;31.30;96.70;;;;;;4993713;28;20053;-84
2022/06/25 12:38:04;;;;;;;4.95;1.45;;;31.20;96.70;;;;;;4989099;28;20820;-83
2022/06/25 12:40:39;;;;;;;7.97;2.00;;;31.20;96.70;;;;;;4994091;28;20053;-83
2022/06/25 12:43:09;;;;;;;7.57;2.10;;;31.30;96.70;;;;;;4973065;28;20083;-82
2022/06/25 12:45:40;;;;;;;6.65;1.88;;;31.20;96.70;;;;;;4992995;28;20097;-85
2022/06/25 12:48:10;;;;;;;4.47;1.42;;;31.40;96.70;;;;;;4997485;28;20054;-85
2022/06/25 12:50:46;;;;;;;6.72;1.75;;;31.50;96.70;;;;;;4998121;28;20149;-86
2022/06/25 12:53:17;;;;;;;4.43;1.65;;;31.40;96.70;;;;;;4991098;28;20046;-85
2022/06/25 12:55:48;;;;;;;6.00;1.80;;;31.40;96.70;;;;;;4990669;28;20504;-85
2022/06/25 12:58:21;;;;;;;6.45;1.73;;;31.60;96.70;;;;;;4989324;28;20042;-84
2022/06/25 13:00:50;;;;;;;5.43;1.60;;;31.60;96.70;;;;;;4975378;28;20633;-85
2022/06/25 13:03:18;;;;;;;5.93;1.50;;;31.60;96.70;;;;;;4994495;28;20042;-84
2022/06/25 13:05:48;;;;;;;4.72;1.40;;;31.70;96.70;;;;;;4974992;28;20136;-85
2022/06/25 13:08:18;;;;;;;7.30;2.05;;;31.80;96.70;;;;;;4990214;28;20081;-84
2022/06/25 13:10:47;;;;;;;8.88;1.88;;;32.00;96.70;;;;;;4993598;28;20048;-85
2022/06/25 13:13:16;;;;;;;8.77;2.08;;;32.10;96.70;;;;;;4999396;28;20055;-84
2022/06/25 13:15:44;;;;;;;8.10;1.63;;;32.20;96.70;;;;;;4990447;28;20676;-84
2022/06/25 13:18:12;;;;;;;4.82;1.60;;;32.20;96.70;;;;;;4990471;28;20050;-85
2022/06/25 13:20:41;;;;;;;5.75;1.67;;;32.10;96.70;;;;;;4997902;28;20042;-85
2022/06/25 13:23:09;;;;;;;11.00;2.45;;;32.10;96.30;;;;;;4996555;28;20061;-85
2022/06/25 13:25:39;;;;;;;6.53;1.85;;;32.30;96.70;;;;;;4990494;28;20042;-86
2022/06/25 13:28:11;;;;;;;5.53;1.55;;;32.40;96.70;;;;;;4971712;28;20177;-86
2022/06/25 13:30:41;;;;;;;7.95;2.13;;;32.60;96.70;;;;;;4983166;28;20057;-86
2022/06/25 13:33:25;;;;;;;5.57;1.70;;;32.70;96.70;;;;;;4999960;28;20046;-84
2022/06/25 13:35:53;;;;;;;6.78;2.00;;;32.50;96.70;;;;;;4991333;28;20050;-85
2022/06/25 13:38:21;;;;;;;6.50;1.60;;;32.50;96.70;;;;;;4999094;28;20128;-86
2022/06/25 13:40:51;;;;;;;5.38;1.70;;;32.90;96.70;;;;;;5001840;28;20077;-87
2022/06/25 13:43:19;;;;;;;4.90;1.60;;;32.70;96.70;;;;;;4985837;28;20056;-86
2022/06/25 13:45:47;;;;;;;6.72;2.00;;;32.80;96.70;;;;;;4999357;28;20046;-84
2022/06/25 13:48:16;;;;;;;6.32;1.55;;;33.10;96.40;;;;;;4974041;28;20093;-86
2022/06/25 13:50:44;;;;;;;5.05;1.35;;;33.10;94.80;;;;;;4991515;28;20093;-87
2022/06/25 13:53:19;;;;;;;4.80;1.35;;;33.10;94.60;;;;;;4970977;28;20555;-86
2022/06/25 13:55:48;;;;;;;5.20;1.60;;;33.40;94.50;;;;;;4989739;28;20121;-86
2022/06/25 13:58:18;;;;;;;6.78;1.85;;;33.20;95.00;;;;;;4973636;28;20053;-85
2022/06/25 14:00:46;;;;;;;5.53;1.33;;;33.30;94.60;;;;;;4980191;28;20527;-87
2022/06/25 14:03:14;;;;;;;5.18;1.40;;;33.60;94.40;;;;;;4988614;28;20162;-84
2022/06/25 14:05:43;;;;;;;4.32;1.15;;;34.00;92.30;;;;;;4988123;28;20047;-85
2022/06/25 14:08:11;;;;;;;4.53;1.30;;;34.00;91.50;;;;;;4991452;28;20050;-83
2022/06/25 14:10:40;;;;;;;5.57;1.40;;;34.30;91.50;;;;;;4988661;28;20066;-83
2022/06/25 14:13:08;;;;;;;4.00;1.80;;;34.40;91.80;;;;;;4988624;28;20046;-84
2022/06/25 14:15:38;;;;;;;6.25;2.30;;;34.30;92.40;;;;;;4993382;28;20046;-83
2022/06/25 14:18:06;;;;;;;4.10;1.80;;;34.50;92.80;;;;;;4993969;28;20057;-81
2022/06/25 14:20:35;;;;;;;4.18;1.27;;;34.30;90.00;;;;;;4976998;28;20233;-81
2022/06/25 14:23:04;;;;;;;5.55;1.75;;;34.40;88.00;;;;;;4988930;28;20107;-77
2022/06/25 14:25:33;;;;;;;4.95;1.27;;;34.40;90.20;;;;;;4974054;28;20141;-81
2022/06/25 14:28:04;;;;;;;3.97;1.33;;;34.40;88.10;;;;;;4991516;28;20149;-80
2022/06/25 14:30:32;;;;;;;6.50;1.55;;;34.70;88.30;;;;;;4988710;28;20117;-78
2022/06/25 14:33:05;;;;;;;7.32;1.77;;;35.20;87.20;;;;;;4967786;28;20504;-80
2022/06/25 14:42:20;;;;;;;5.90;1.52;;;35.40;87.50;;;;;;4981322;28;20137;-81
2022/06/25 14:42:24;;;;;;;8.07;1.48;;;35.10;87.30;;;;;;4986531;28;20097;-81
2022/06/25 14:45:00;;;;;;;3.92;1.30;;;35.30;88.00;;;;;;4987741;28;20050;-82
2022/06/25 14:47:37;;;;;;;4.72;1.67;;;36.00;86.90;;;;;;4977170;28;20056;-81
2022/06/25 14:50:36;;;;;;;5.68;1.40;;;36.20;87.70;;;;;;4990658;28;20038;-82
2022/06/25 14:53:06;;;;;;;5.80;1.60;;;35.70;87.40;;;;;;4981340;28;20060;-83
2022/06/25 14:55:35;;;;;;;5.78;1.30;;;35.30;89.20;;;;;;4992994;28;20038;-82
2022/06/25 14:58:32;;;;;;;5.88;1.58;;;35.50;88.70;;;;;;4881548;29;20589;-82
2022/06/25 15:01:01;;;;;;;6.53;1.75;;;35.50;89.90;;;;;;4874151;29;20051;-79
2022/06/25 15:04:00;;;;;;;5.88;1.67;;;35.80;89.30;;;;;;4909361;29;20260;-80
2022/06/25 15:06:31;;;;;;;6.97;1.27;;;35.90;88.40;;;;;;4904836;29;20211;-81
2022/06/25 15:09:04;;;;;;;4.60;1.80;;;36.00;87.70;;;;;;4893775;29;20984;-77
2022/06/25 15:11:54;;;;;;;6.95;1.90;;;36.50;87.20;;;;;;4876338;29;20084;-77
2022/06/25 15:14:23;;;;;;;5.78;1.63;;;36.30;86.10;;;;;;4874108;29;20056;-77
2022/06/25 15:17:17;;;;;;;8.00;1.90;;;36.10;87.40;;;;;;4887489;29;20152;-77
2022/06/25 15:19:47;;;;;;;6.95;1.63;;;35.90;86.00;;;;;;4892109;29;20057;-76
2022/06/25 15:25:35;;;;;;;8.10;2.00;;;36.30;86.40;;;;;;4963490;28;20446;-78
2022/06/25 15:28:16;;;;;;;4.57;1.75;;;36.40;86.30;;;;;;4963468;23;20070;-77
2022/06/25 15:30:46;;;;;;;6.30;1.52;;;36.40;87.20;;;;;;4942431;28;20058;-75
2022/06/25 15:33:39;;;;;;;6.82;2.05;;;36.60;86.00;;;;;;4957060;28;20181;-76
2022/06/25 15:36:10;;;;;;;4.55;1.40;;;36.30;85.20;;;;;;4937179;28;20090;-76
2022/06/25 15:38:41;;;;;;;4.55;1.48;;;36.50;84.50;;;;;;4942753;28;20054;-77
2022/06/25 15:41:37;;;;;;;9.32;1.70;;;36.80;85.00;;;;;;4953774;28;20046;-78
2022/06/25 15:44:06;;;;;;;5.45;1.52;;;36.50;84.70;;;;;;4935374;28;20051;-77
2022/06/25 15:46:39;;;;;;;6.63;1.60;;;36.70;84.80;;;;;;4942485;28;20053;-77
2022/06/25 15:49:54;;;;;;;3.60;1.45;;;37.10;83.70;;;;;;4954507;28;20047;-78
2022/06/25 15:52:24;;;;;;;4.97;1.58;;;37.30;83.40;;;;;;4959207;28;20580;-77
2022/06/25 15:54:57;;;;;;;4.00;1.08;;;37.70;82.40;;;;;;4954128;28;20054;-79
2022/06/25 15:57:26;;;;;;;4.95;1.80;;;37.70;81.40;;;;;;4956462;28;20070;-77
2022/06/25 15:59:54;;;;;;;6.20;1.55;;;37.90;81.70;;;;;;4964923;28;20054;-80
2022/06/25 16:02:48;;;;;;;3.97;1.40;;;37.90;81.50;;;;;;4960139;28;20051;-78
2022/06/25 16:05:17;;;;;;;4.97;1.30;;;37.70;82.00;;;;;;4886201;29;20060;-77
2022/06/25 16:07:57;;;;;;;4.32;1.13;;;37.80;81.60;;;;;;4886324;29;20076;-77
2022/06/25 16:10:32;;;;;;;4.18;1.23;;;37.60;81.80;;;;;;4871160;29;20059;-76
2022/06/25 16:13:11;;;;;;;6.43;1.88;;;38.00;81.60;;;;;;4874875;29;20610;-78
2022/06/25 16:15:40;;;;;;;3.00;1.50;;;37.80;80.60;;;;;;4887936;29;20057;-80
2022/06/25 16:18:13;;;;;;;2.92;1.23;;;37.70;79.20;;;;;;4893148;29;20072;-79
2022/06/25 16:20:46;;;;;;;4.07;1.60;;;37.50;80.20;;;;;;4886656;29;20108;-78
2022/06/25 16:23:18;;;;;;;4.72;1.27;;;37.30;79.50;;;;;;4870698;29;20711;-78
2022/06/25 16:25:51;;;;;;;4.57;1.40;;;37.50;78.70;;;;;;4874518;29;20527;-77
2022/06/25 16:28:21;;;;;;;5.03;1.48;;;37.60;79.10;;;;;;4868235;29;20144;-80
2022/06/25 16:30:50;;;;;;;4.72;1.30;;;37.90;78.60;;;;;;4865544;29;20056;-79
2022/06/25 16:33:20;;;;;;;3.28;1.45;;;37.80;78.50;;;;;;4856097;29;20052;-79
2022/06/25 16:36:06;;;;;;;3.97;1.05;;;36.90;79.30;;;;;;4853596;29;20072;-79
2022/06/25 16:38:43;;;;;;;3.47;1.35;;;37.50;78.50;;;;;;4846209;29;20156;-79
2022/06/25 16:41:13;;;;;;;3.72;1.23;;;37.80;78.50;;;;;;4881945;29;20083;-79
2022/06/25 16:46:31;;;;;;;4.47;1.73;;;38.70;75.90;;;;;;4916354;29;20056;-78
2022/06/25 16:49:01;;;;;;;3.95;1.35;;;37.80;77.70;;;;;;4919247;29;20076;-77
2022/06/25 16:51:29;;;;;;;5.80;1.20;;;35.50;82.10;;;;;;4924907;29;20296;-76
2022/06/25 16:53:57;;;;;;;2.65;1.15;;;34.30;84.30;;;;;;4913915;29;20505;-77
2022/06/25 16:56:27;;;;;;;3.88;1.00;;;34.00;83.90;;;;;;4919833;29;20070;-77
2022/06/25 16:58:55;;;;;;;6.35;1.30;;;33.90;84.30;;;;;;4922439;29;20043;-76
2022/06/25 17:01:23;;;;;;;4.10;1.60;;;36.00;81.40;;;;;;4921732;29;20134;-77
2022/06/25 17:03:56;;;;;;;4.70;1.33;;;37.10;79.80;;;;;;4922318;29;20051;-76
2022/06/25 17:06:25;;;;;;;7.53;1.40;;;38.10;78.60;;;;;;4920590;29;20145;-77
2022/06/25 17:08:54;;;;;;;2.88;1.05;;;38.40;77.50;;;;;;4915093;29;20040;-78
2022/06/25 17:11:23;;;;;;;9.02;1.48;;;38.80;77.10;;;;;;4906407;29;20139;-77
2022/06/25 17:13:53;;;;;;;3.80;1.23;;;39.10;76.60;;;;;;4923309;29;20408;-76
2022/06/25 17:16:21;;;;;;;3.40;1.25;;;38.90;76.60;;;;;;4930728;29;20485;-77
2022/06/25 17:18:50;;;;;;;3.40;1.23;;;38.90;77.10;;;;;;4931308;29;21029;-89
2022/06/25 17:21:19;;;;;;;4.18;1.40;;;39.20;76.30;;;;;;4924545;29;20048;-86
2022/06/25 17:23:48;;;;;;;5.38;1.52;;;39.10;76.40;;;;;;4925375;29;20076;-87
2022/06/25 17:26:18;;;;;;;3.53;1.52;;;39.30;76.30;;;;;;4940162;28;20141;-87
2022/06/25 17:28:49;;;;;;;3.95;1.35;;;39.40;75.70;;;;;;4956693;28;20417;-88
2022/06/25 17:31:19;;;;;;;6.35;1.80;;;39.50;75.20;;;;;;4952184;28;20051;-91
2022/06/25 17:33:47;;;;;;;2.80;1.25;;;39.50;75.20;;;;;;4972586;28;20070;-90
2022/06/25 17:36:16;;;;;;;2.75;1.25;;;39.40;75.60;;;;;;4971886;28;20567;-89
2022/06/25 17:38:44;;;;;;;5.00;1.85;;;39.00;76.10;;;;;;4972029;28;20046;-90
2022/06/25 17:41:14;;;;;;;2.95;1.60;;;38.90;77.30;;;;;;4971424;28;20051;-88
2022/06/25 17:43:42;;;;;;;3.40;1.42;;;39.10;76.50;;;;;;4967985;28;20035;-86
2022/06/25 17:46:10;;;;;;;4.13;1.92;;;39.10;75.80;;;;;;4972005;28;20129;-86
2022/06/25 17:48:39;;;;;;;5.85;1.85;;;39.20;75.50;;;;;;4948042;28;20570;-85
2022/06/25 17:51:07;;;;;;;4.60;1.50;;;39.10;76.30;;;;;;4954983;28;20107;-81
2022/06/25 17:53:36;;;;;;;4.32;1.67;;;38.90;76.80;;;;;;4965599;28;20061;-84
2022/06/25 17:56:04;;;;;;;5.70;1.80;;;38.70;76.80;;;;;;4959281;28;20066;-84
2022/06/25 17:58:32;;;;;;;5.28;2.17;;;38.60;77.00;;;;;;4965453;28;20041;-84
2022/06/25 18:01:01;;;;;;;5.13;1.35;;;38.40;77.00;;;;;;4951534;28;20134;-84
2022/06/25 18:03:30;;;;;;;5.35;1.75;;;38.00;77.10;;;;;;4945451;28;20054;-82
2022/06/25 18:05:59;;;;;;;5.50;1.80;;;37.70;78.20;;;;;;4963919;28;20049;-84
2022/06/25 18:08:28;;;;;;;3.75;2.03;;;37.80;78.00;;;;;;4974377;28;20042;-84
2022/06/25 18:11:13;;;;;;;4.22;1.70;;;37.50;78.10;;;;;;4966451;28;20154;-84
2022/06/25 18:13:42;;;;;;;3.70;1.60;;;37.30;79.00;;;;;;4955931;28;20341;-83
2022/06/25 18:16:10;;;;;;;3.63;1.33;;;36.70;80.10;;;;;;4968071;28;20046;-83
2022/06/25 18:18:38;;;;;;;2.72;1.52;;;36.40;80.80;;;;;;4967179;28;20046;-83
2022/06/25 18:21:08;;;;;;;4.28;1.80;;;36.00;80.50;;;;;;4969813;28;20055;-84
2022/06/25 18:23:36;;;;;;;7.70;4.50;;;35.60;81.10;;;;;;4968824;28;20050;-83
2022/06/25 18:26:03;;;;;;;6.85;3.10;;;35.00;81.80;;;;;;4969141;28;20073;-83
2022/06/25 18:28:33;;;;;;;6.78;4.50;;;34.40;82.40;;;;;;4963289;28;20225;-84
2022/06/25 18:31:02;;;;;;;6.53;2.88;;;33.60;84.70;;;;;;4962937;28;20051;-83
2022/06/25 18:33:30;;;;;;;6.20;2.60;;;32.70;85.20;;;;;;4968390;28;20158;-83
2022/06/25 18:35:57;;;;;;;3.88;2.10;;;32.10;86.40;;;;;;4951878;28;20047;-83
2022/06/25 18:38:27;;;;;;;5.20;1.58;;;31.60;87.30;;;;;;4965960;28;20042;-83
2022/06/25 18:40:55;;;;;;;4.35;1.45;;;31.30;87.30;;;;;;4967897;28;20456;-84
2022/06/25 18:43:23;;;;;;;4.82;1.45;;;31.00;87.50;;;;;;4966338;28;20047;-84
2022/06/25 18:45:51;;;;;;;6.20;1.50;;;30.70;87.90;;;;;;4964860;28;20157;-84
2022/06/25 18:48:19;;;;;;;4.15;1.08;;;30.40;88.60;;;;;;4960662;28;20056;-83
2022/06/25 18:50:46;;;;;;;2.75;1.00;;;30.20;89.40;;;;;;4968638;28;20078;-83
2022/06/25 18:53:15;;;;;;;4.70;0.90;;;30.00;90.40;;;;;;4942618;29;20151;-84
2022/06/25 18:55:45;;;;;;;2.22;0.93;;;29.80;91.20;;;;;;4951973;28;20042;-83
2022/06/25 18:58:17;;;;;;;7.03;1.50;;;29.70;91.70;;;;;;4960484;28;20051;-83
2022/06/25 19:00:46;;;;;;;3.13;1.15;;;29.60;92.20;;;;;;4967268;28;20051;-83
2022/06/25 19:03:17;;;;;;;5.95;1.75;;;29.50;93.00;;;;;;4969086;28;20054;-82
2022/06/25 19:05:45;;;;;;;3.72;1.50;;;29.40;93.70;;;;;;4969032;28;20042;-83
2022/06/25 19:08:13;;;;;;;6.07;1.73;;;29.30;94.80;;;;;;4949086;28;20130;-83
2022/06/25 19:10:41;;;;;;;4.70;1.55;;;29.10;96.10;;;;;;4966883;28;20043;-82
2022/06/25 19:13:10;;;;;;;5.03;2.17;;;29.10;96.70;;;;;;4950542;28;20049;-83
2022/06/25 19:15:38;;;;;;;6.82;2.50;;;29.00;96.70;;;;;;4951033;28;20055;-83
2022/06/25 19:18:06;;;;;;;5.10;2.42;;;28.90;96.70;;;;;;4956968;28;20097;-83
2022/06/25 19:20:37;;;;;;;6.38;1.77;;;28.80;96.70;;;;;;4966430;28;20516;-86
2022/06/25 19:23:05;;;;;;;4.60;1.63;;;28.80;96.70;;;;;;4966485;28;20034;-87
2022/06/25 19:25:34;;;;;;;3.50;1.40;;;28.80;96.70;;;;;;4959796;28;20053;-87
2022/06/25 19:28:02;;;;;;;5.82;1.92;;;28.80;96.70;;;;;;4962904;28;20062;-85
2022/06/25 19:30:31;;;;;;;4.88;1.35;;;28.70;96.70;;;;;;4960428;28;20527;-85
2022/06/25 19:33:00;;;;;;;5.40;1.67;;;28.70;96.70;;;;;;4965030;28;20507;-84
2022/06/25 19:35:28;;;;;;;4.57;1.65;;;28.70;96.70;;;;;;4966758;28;20055;-84
2022/06/25 19:37:56;;;;;;;3.83;1.55;;;28.60;96.70;;;;;;4958397;28;20050;-84
2022/06/25 19:40:24;;;;;;;4.45;1.92;;;28.60;96.70;;;;;;4965486;28;20058;-84
2022/06/25 19:42:52;;;;;;;4.18;1.60;;;28.50;96.70;;;;;;4958883;28;20039;-85
2022/06/25 19:45:20;;;;;;;6.32;1.95;;;28.50;96.70;;;;;;4967025;28;20118;-84
2022/06/25 19:47:55;;;;;;;6.90;1.85;;;28.50;96.70;;;;;;4962628;28;20513;-85
2022/06/25 19:50:23;;;;;;;8.00;2.07;;;28.50;96.70;;;;;;4956720;28;20046;-84
2022/06/25 19:52:53;;;;;;;6.32;1.50;;;28.40;96.70;;;;;;4950805;28;20074;-82
2022/06/25 19:55:21;;;;;;;6.55;1.83;;;28.40;96.70;;;;;;4968304;28;20051;-84
2022/06/25 19:57:49;;;;;;;5.30;1.70;;;28.40;96.70;;;;;;4951179;28;20043;-88
2022/06/25 20:00:17;;;;;;;6.07;1.60;;;28.40;96.70;;;;;;4968631;28;20050;-88
2022/06/25 20:02:45;;;;;;;5.95;1.40;;;28.30;96.70;;;;;;4946167;28;20055;-85
2022/06/25 20:05:15;;;;;;;6.25;1.60;;;28.20;96.70;;;;;;4962321;28;20051;-83
2022/06/25 20:07:44;;;;;;;6.95;1.75;;;28.30;96.70;;;;;;4945541;28;20204;-89
2022/06/25 20:10:13;;;;;;;5.00;2.92;;;28.30;96.70;;;;;;4965476;28;20070;-87
2022/06/25 20:12:41;;;;;;;8.23;1.90;;;28.20;96.70;;;;;;4960169;28;20047;-88
2022/06/25 20:15:10;;;;;;;5.05;1.88;;;28.00;96.70;;;;;;4968036;28;20078;-88
2022/06/25 20:17:39;;;;;;;7.63;4.32;;;27.80;96.70;;;;;;4968266;28;20043;-85
2022/06/25 20:20:09;;;;;;;5.22;1.85;;;27.80;96.70;;;;;;4960370;28;20047;-84
2022/06/25 20:22:39;;;;;;;9.30;4.20;;;27.80;96.70;;;;;;4962236;28;20094;-84
2022/06/25 20:25:08;;;;;;;5.75;2.42;;;27.80;96.70;;;;;;4967583;28;20078;-86
2022/06/25 20:27:37;;;;;;;7.65;1.85;;;27.60;96.70;;;;;;4963074;28;20134;-85
2022/06/25 20:30:07;;;;;;;3.80;1.98;;;27.40;96.70;;;;;;4959406;28;20144;-85
2022/06/25 20:32:35;;;;;;;5.68;2.70;;;27.30;96.70;;;;;;4971938;28;20047;-86
2022/06/25 20:35:04;;;;;;;5.57;2.40;;;27.20;96.70;;;;;;4967279;28;20372;-86
2022/06/25 20:37:32;;;;;;;4.07;2.35;;;27.00;96.70;;;;;;4962355;28;20050;-85
2022/06/25 20:40:15;;;;;;;5.18;1.90;;;26.90;96.70;;;;;;4960555;28;20079;-86
2022/06/25 20:42:43;;;;;;;7.65;2.05;;;26.90;96.70;;;;;;4952095;28;20077;-84
2022/06/25 20:45:11;;;;;;;6.03;1.88;;;26.80;96.70;;;;;;4968527;28;20047;-83
2022/06/25 20:47:39;;;;;;;6.57;2.35;;;26.70;96.70;;;;;;4967700;28;20047;-84
2022/06/25 20:50:11;;;;;;;5.22;1.90;;;26.70;96.70;;;;;;4966960;28;20051;-85